sensor_id;sensor_type;location;lat;lon;timestamp;temperature;humidity
69359;HTU21D;56520;49.066;8.660;2023-04-19T00:00:34;9.70;80.97
69359;HTU21D;56520;49.066;8.660;2023-04-19T00:03:00;9.71;80.85
69359;HTU21D;56520;49.066;8.660;2023-04-19T00:05:27;9.68;80.77
69359;HTU21D;56520;49.066;8.660;2023-04-19T00:07:52;9.66;80.62
69359;HTU21D;56520;49.066;8.660;2023-04-19T00:10:18;9.63;80.85
69359;HTU21D;56520;49.066;8.660;2023-04-19T00:12:43;9.63;81.04
69359;HTU21D;56520;49.066;8.660;2023-04-19T00:15:09;9.61;80.90
69359;HTU21D;56520;49.066;8.660;2023-04-19T00:17:34;9.60;80.94
69359;HTU21D;56520;49.066;8.660;2023-04-19T00:20:00;9.62;80.94
69359;HTU21D;56520;49.066;8.660;2023-04-19T00:22:25;9.59;80.94
69359;HTU21D;56520;49.066;8.660;2023-04-19T00:24:51;9.56;80.78
69359;HTU21D;56520;49.066;8.660;2023-04-19T00:27:17;9.53;80.72
69359;HTU21D;56520;49.066;8.660;2023-04-19T00:29:42;9.53;80.87
69359;HTU21D;56520;49.066;8.660;2023-04-19T00:32:08;9.51;80.70
69359;HTU21D;56520;49.066;8.660;2023-04-19T00:34:33;9.51;80.78
69359;HTU21D;56520;49.066;8.660;2023-04-19T00:36:59;9.49;80.86
69359;HTU21D;56520;49.066;8.660;2023-04-19T00:39:24;9.48;80.82
69359;HTU21D;56520;49.066;8.660;2023-04-19T00:41:50;9.49;80.91
69359;HTU21D;56520;49.066;8.660;2023-04-19T00:44:15;9.49;81.27
69359;HTU21D;56520;49.066;8.660;2023-04-19T00:46:41;9.47;81.27
69359;HTU21D;56520;49.066;8.660;2023-04-19T00:49:08;9.47;81.18
69359;HTU21D;56520;49.066;8.660;2023-04-19T00:51:34;9.47;81.49
69359;HTU21D;56520;49.066;8.660;2023-04-19T00:54:01;9.46;81.46
69359;HTU21D;56520;49.066;8.660;2023-04-19T00:56:28;9.42;81.73
69359;HTU21D;56520;49.066;8.660;2023-04-19T00:58:53;9.42;81.49
69359;HTU21D;56520;49.066;8.660;2023-04-19T01:01:19;9.39;81.61
69359;HTU21D;56520;49.066;8.660;2023-04-19T01:03:45;9.38;81.89
69359;HTU21D;56520;49.066;8.660;2023-04-19T01:06:11;9.36;82.01
69359;HTU21D;56520;49.066;8.660;2023-04-19T01:08:37;9.36;82.05
69359;HTU21D;56520;49.066;8.660;2023-04-19T01:11:03;9.37;82.00
69359;HTU21D;56520;49.066;8.660;2023-04-19T01:13:29;9.35;81.93
69359;HTU21D;56520;49.066;8.660;2023-04-19T01:15:54;9.36;81.84
69359;HTU21D;56520;49.066;8.660;2023-04-19T01:18:21;9.33;82.06
69359;HTU21D;56520;49.066;8.660;2023-04-19T01:20:48;9.33;82.23
69359;HTU21D;56520;49.066;8.660;2023-04-19T01:23:14;9.31;82.32
69359;HTU21D;56520;49.066;8.660;2023-04-19T01:25:39;9.30;82.25
69359;HTU21D;56520;49.066;8.660;2023-04-19T01:28:04;9.30;82.42
69359;HTU21D;56520;49.066;8.660;2023-04-19T01:30:30;9.29;82.37
69359;HTU21D;56520;49.066;8.660;2023-04-19T01:32:56;9.29;82.42
69359;HTU21D;56520;49.066;8.660;2023-04-19T01:35:22;9.25;82.31
69359;HTU21D;56520;49.066;8.660;2023-04-19T01:37:47;9.27;82.34
69359;HTU21D;56520;49.066;8.660;2023-04-19T01:40:18;9.27;82.62
69359;HTU21D;56520;49.066;8.660;2023-04-19T01:42:46;9.25;82.45
69359;HTU21D;56520;49.066;8.660;2023-04-19T01:45:11;9.23;82.49
69359;HTU21D;56520;49.066;8.660;2023-04-19T01:47:37;9.23;82.37
69359;HTU21D;56520;49.066;8.660;2023-04-19T01:50:03;9.21;82.50
69359;HTU21D;56520;49.066;8.660;2023-04-19T01:52:28;9.20;82.67
69359;HTU21D;56520;49.066;8.660;2023-04-19T01:54:53;9.20;82.71
69359;HTU21D;56520;49.066;8.660;2023-04-19T01:57:19;9.16;82.67
69359;HTU21D;56520;49.066;8.660;2023-04-19T01:59:44;9.16;82.76
69359;HTU21D;56520;49.066;8.660;2023-04-19T02:02:10;9.17;82.73
69359;HTU21D;56520;49.066;8.660;2023-04-19T02:04:35;9.15;82.68
69359;HTU21D;56520;49.066;8.660;2023-04-19T02:07:01;9.14;82.68
69359;HTU21D;56520;49.066;8.660;2023-04-19T02:09:26;9.15;82.57
69359;HTU21D;56520;49.066;8.660;2023-04-19T02:11:52;9.11;82.77
69359;HTU21D;56520;49.066;8.660;2023-04-19T02:14:17;9.11;82.61
69359;HTU21D;56520;49.066;8.660;2023-04-19T02:16:43;9.09;82.61
69359;HTU21D;56520;49.066;8.660;2023-04-19T02:19:08;9.09;82.71
69359;HTU21D;56520;49.066;8.660;2023-04-19T02:21:34;9.09;82.84
69359;HTU21D;56520;49.066;8.660;2023-04-19T02:23:59;9.09;82.56
69359;HTU21D;56520;49.066;8.660;2023-04-19T02:26:25;9.10;82.64
69359;HTU21D;56520;49.066;8.660;2023-04-19T02:28:51;9.09;82.75
69359;HTU21D;56520;49.066;8.660;2023-04-19T02:31:17;9.07;82.87
69359;HTU21D;56520;49.066;8.660;2023-04-19T02:33:42;9.06;82.85
69359;HTU21D;56520;49.066;8.660;2023-04-19T02:36:08;9.06;82.62
69359;HTU21D;56520;49.066;8.660;2023-04-19T02:38:34;9.05;82.58
69359;HTU21D;56520;49.066;8.660;2023-04-19T02:40:59;9.03;82.65
69359;HTU21D;56520;49.066;8.660;2023-04-19T02:43:25;9.03;82.69
69359;HTU21D;56520;49.066;8.660;2023-04-19T02:45:52;9.02;82.71
69359;HTU21D;56520;49.066;8.660;2023-04-19T02:48:17;9.01;82.86
69359;HTU21D;56520;49.066;8.660;2023-04-19T02:50:43;9.00;82.92
69359;HTU21D;56520;49.066;8.660;2023-04-19T02:53:08;8.97;83.03
69359;HTU21D;56520;49.066;8.660;2023-04-19T02:55:34;8.97;83.26
69359;HTU21D;56520;49.066;8.660;2023-04-19T02:57:59;8.97;83.20
69359;HTU21D;56520;49.066;8.660;2023-04-19T03:00:24;8.96;83.12
69359;HTU21D;56520;49.066;8.660;2023-04-19T03:02:50;8.97;83.16
69359;HTU21D;56520;49.066;8.660;2023-04-19T03:05:15;8.96;83.12
69359;HTU21D;56520;49.066;8.660;2023-04-19T03:07:41;8.96;83.17
69359;HTU21D;56520;49.066;8.660;2023-04-19T03:10:07;8.95;83.25
69359;HTU21D;56520;49.066;8.660;2023-04-19T03:12:32;8.93;83.16
69359;HTU21D;56520;49.066;8.660;2023-04-19T03:14:57;8.93;83.11
69359;HTU21D;56520;49.066;8.660;2023-04-19T03:17:23;8.92;83.05
69359;HTU21D;56520;49.066;8.660;2023-04-19T03:19:51;8.93;83.13
69359;HTU21D;56520;49.066;8.660;2023-04-19T03:22:20;8.93;83.13
69359;HTU21D;56520;49.066;8.660;2023-04-19T03:24:46;8.91;83.07
69359;HTU21D;56520;49.066;8.660;2023-04-19T03:27:11;8.91;83.08
69359;HTU21D;56520;49.066;8.660;2023-04-19T03:29:36;8.90;82.97
69359;HTU21D;56520;49.066;8.660;2023-04-19T03:32:02;8.90;83.26
69359;HTU21D;56520;49.066;8.660;2023-04-19T03:34:27;8.89;83.13
69359;HTU21D;56520;49.066;8.660;2023-04-19T03:36:53;8.90;83.23
69359;HTU21D;56520;49.066;8.660;2023-04-19T03:39:18;8.88;83.16
69359;HTU21D;56520;49.066;8.660;2023-04-19T03:41:44;8.86;83.23
69359;HTU21D;56520;49.066;8.660;2023-04-19T03:44:09;8.86;83.19
69359;HTU21D;56520;49.066;8.660;2023-04-19T03:46:34;8.87;83.18
69359;HTU21D;56520;49.066;8.660;2023-04-19T03:49:00;8.85;83.09
69359;HTU21D;56520;49.066;8.660;2023-04-19T03:51:25;8.86;83.28
69359;HTU21D;56520;49.066;8.660;2023-04-19T03:53:51;8.83;83.35
69359;HTU21D;56520;49.066;8.660;2023-04-19T03:56:16;8.82;83.25
69359;HTU21D;56520;49.066;8.660;2023-04-19T03:58:42;8.82;83.19
69359;HTU21D;56520;49.066;8.660;2023-04-19T04:01:07;8.83;83.24
69359;HTU21D;56520;49.066;8.660;2023-04-19T04:03:33;8.81;83.12
69359;HTU21D;56520;49.066;8.660;2023-04-19T04:05:59;8.82;83.13
69359;HTU21D;56520;49.066;8.660;2023-04-19T04:08:24;8.81;83.16
69359;HTU21D;56520;49.066;8.660;2023-04-19T04:10:50;8.83;82.97
69359;HTU21D;56520;49.066;8.660;2023-04-19T04:13:15;8.82;83.03
69359;HTU21D;56520;49.066;8.660;2023-04-19T04:15:40;8.81;82.94
69359;HTU21D;56520;49.066;8.660;2023-04-19T04:18:06;8.81;82.84
69359;HTU21D;56520;49.066;8.660;2023-04-19T04:20:31;8.81;82.81
69359;HTU21D;56520;49.066;8.660;2023-04-19T04:22:56;8.79;82.84
69359;HTU21D;56520;49.066;8.660;2023-04-19T04:25:22;8.79;82.90
69359;HTU21D;56520;49.066;8.660;2023-04-19T04:27:50;8.78;82.89
69359;HTU21D;56520;49.066;8.660;2023-04-19T04:30:16;8.79;82.80
69359;HTU21D;56520;49.066;8.660;2023-04-19T04:32:41;8.76;82.91
69359;HTU21D;56520;49.066;8.660;2023-04-19T04:35:08;8.75;82.94
69359;HTU21D;56520;49.066;8.660;2023-04-19T04:37:34;8.74;82.84
69359;HTU21D;56520;49.066;8.660;2023-04-19T04:40:00;8.71;82.82
69359;HTU21D;56520;49.066;8.660;2023-04-19T04:42:26;8.67;82.78
69359;HTU21D;56520;49.066;8.660;2023-04-19T04:44:52;8.63;82.95
69359;HTU21D;56520;49.066;8.660;2023-04-19T04:47:19;8.59;83.26
69359;HTU21D;56520;49.066;8.660;2023-04-19T04:49:45;8.56;83.39
69359;HTU21D;56520;49.066;8.660;2023-04-19T04:52:10;8.53;83.52
69359;HTU21D;56520;49.066;8.660;2023-04-19T04:54:36;8.51;83.56
69359;HTU21D;56520;49.066;8.660;2023-04-19T04:57:01;8.50;83.50
69359;HTU21D;56520;49.066;8.660;2023-04-19T04:59:26;8.47;83.72
69359;HTU21D;56520;49.066;8.660;2023-04-19T05:01:52;8.47;83.71
69359;HTU21D;56520;49.066;8.660;2023-04-19T05:04:18;8.44;83.81
69359;HTU21D;56520;49.066;8.660;2023-04-19T05:06:43;8.45;83.74
69359;HTU21D;56520;49.066;8.660;2023-04-19T05:09:09;8.46;83.80
69359;HTU21D;56520;49.066;8.660;2023-04-19T05:11:35;8.49;83.65
69359;HTU21D;56520;49.066;8.660;2023-04-19T05:14:01;8.53;83.47
69359;HTU21D;56520;49.066;8.660;2023-04-19T05:16:26;8.59;82.84
69359;HTU21D;56520;49.066;8.660;2023-04-19T05:18:51;8.65;82.88
69359;HTU21D;56520;49.066;8.660;2023-04-19T05:21:17;8.73;82.77
69359;HTU21D;56520;49.066;8.660;2023-04-19T05:23:42;8.81;81.69
69359;HTU21D;56520;49.066;8.660;2023-04-19T05:26:08;8.83;82.16
69359;HTU21D;56520;49.066;8.660;2023-04-19T05:28:37;8.89;81.98
69359;HTU21D;56520;49.066;8.660;2023-04-19T05:31:03;8.92;81.63
69359;HTU21D;56520;49.066;8.660;2023-04-19T05:33:28;8.92;81.61
69359;HTU21D;56520;49.066;8.660;2023-04-19T05:35:54;8.87;81.82
69359;HTU21D;56520;49.066;8.660;2023-04-19T05:38:19;8.79;82.06
69359;HTU21D;56520;49.066;8.660;2023-04-19T05:40:45;8.75;82.11
69359;HTU21D;56520;49.066;8.660;2023-04-19T05:43:10;8.73;82.28
69359;HTU21D;56520;49.066;8.660;2023-04-19T05:45:36;8.67;82.48
69359;HTU21D;56520;49.066;8.660;2023-04-19T05:48:01;8.67;82.37
69359;HTU21D;56520;49.066;8.660;2023-04-19T05:50:26;8.65;82.59
69359;HTU21D;56520;49.066;8.660;2023-04-19T05:52:52;8.68;82.42
69359;HTU21D;56520;49.066;8.660;2023-04-19T05:55:17;8.71;82.31
69359;HTU21D;56520;49.066;8.660;2023-04-19T05:57:43;8.73;82.48
69359;HTU21D;56520;49.066;8.660;2023-04-19T06:00:08;8.74;82.51
69359;HTU21D;56520;49.066;8.660;2023-04-19T06:02:35;8.74;82.22
69359;HTU21D;56520;49.066;8.660;2023-04-19T06:05:01;8.74;82.37
69359;HTU21D;56520;49.066;8.660;2023-04-19T06:07:29;8.73;82.20
69359;HTU21D;56520;49.066;8.660;2023-04-19T06:09:55;8.70;82.43
69359;HTU21D;56520;49.066;8.660;2023-04-19T06:12:20;8.70;82.57
69359;HTU21D;56520;49.066;8.660;2023-04-19T06:14:46;8.72;82.71
69359;HTU21D;56520;49.066;8.660;2023-04-19T06:17:11;8.77;82.65
69359;HTU21D;56520;49.066;8.660;2023-04-19T06:19:36;8.85;82.49
69359;HTU21D;56520;49.066;8.660;2023-04-19T06:22:02;8.92;82.18
69359;HTU21D;56520;49.066;8.660;2023-04-19T06:24:27;8.91;82.26
69359;HTU21D;56520;49.066;8.660;2023-04-19T06:26:53;8.96;82.10
69359;HTU21D;56520;49.066;8.660;2023-04-19T06:29:21;8.98;82.03
69359;HTU21D;56520;49.066;8.660;2023-04-19T06:31:47;9.02;82.28
69359;HTU21D;56520;49.066;8.660;2023-04-19T06:34:13;9.17;81.68
69359;HTU21D;56520;49.066;8.660;2023-04-19T06:36:38;9.27;81.74
69359;HTU21D;56520;49.066;8.660;2023-04-19T06:39:04;9.38;80.94
69359;HTU21D;56520;49.066;8.660;2023-04-19T06:41:29;9.44;80.85
69359;HTU21D;56520;49.066;8.660;2023-04-19T06:43:55;9.51;80.62
69359;HTU21D;56520;49.066;8.660;2023-04-19T06:46:20;9.62;79.88
69359;HTU21D;56520;49.066;8.660;2023-04-19T06:48:46;9.67;80.45
69359;HTU21D;56520;49.066;8.660;2023-04-19T06:51:11;9.79;79.78
69359;HTU21D;56520;49.066;8.660;2023-04-19T06:53:36;9.84;79.86
69359;HTU21D;56520;49.066;8.660;2023-04-19T06:56:03;9.94;79.77
69359;HTU21D;56520;49.066;8.660;2023-04-19T06:58:29;10.01;79.48
69359;HTU21D;56520;49.066;8.660;2023-04-19T07:00:56;10.08;79.82
69359;HTU21D;56520;49.066;8.660;2023-04-19T07:03:21;10.22;79.37
69359;HTU21D;56520;49.066;8.660;2023-04-19T07:05:47;10.45;79.12
69359;HTU21D;56520;49.066;8.660;2023-04-19T07:08:13;10.65;78.08
69359;HTU21D;56520;49.066;8.660;2023-04-19T07:10:38;10.74;77.35
69359;HTU21D;56520;49.066;8.660;2023-04-19T07:13:03;10.79;77.81
69359;HTU21D;56520;49.066;8.660;2023-04-19T07:15:29;10.92;77.67
69359;HTU21D;56520;49.066;8.660;2023-04-19T07:17:54;11.09;76.89
69359;HTU21D;56520;49.066;8.660;2023-04-19T07:20:20;11.16;76.10
69359;HTU21D;56520;49.066;8.660;2023-04-19T07:22:46;11.18;76.02
69359;HTU21D;56520;49.066;8.660;2023-04-19T07:25:11;11.27;76.03
69359;HTU21D;56520;49.066;8.660;2023-04-19T07:27:37;11.27;75.96
69359;HTU21D;56520;49.066;8.660;2023-04-19T07:30:02;11.32;76.51
69359;HTU21D;56520;49.066;8.660;2023-04-19T07:32:28;11.41;75.52
69359;HTU21D;56520;49.066;8.660;2023-04-19T07:34:55;11.46;74.59
69359;HTU21D;56520;49.066;8.660;2023-04-19T07:37:20;11.55;75.19
69359;HTU21D;56520;49.066;8.660;2023-04-19T07:39:46;11.68;74.66
69359;HTU21D;56520;49.066;8.660;2023-04-19T07:42:11;11.77;74.53
69359;HTU21D;56520;49.066;8.660;2023-04-19T07:44:39;11.86;74.38
69359;HTU21D;56520;49.066;8.660;2023-04-19T07:47:04;11.86;75.20
69359;HTU21D;56520;49.066;8.660;2023-04-19T07:49:30;11.96;74.80
69359;HTU21D;56520;49.066;8.660;2023-04-19T07:51:59;12.03;74.35
69359;HTU21D;56520;49.066;8.660;2023-04-19T07:54:26;12.17;74.00
69359;HTU21D;56520;49.066;8.660;2023-04-19T07:56:51;12.29;72.58
69359;HTU21D;56520;49.066;8.660;2023-04-19T07:59:19;12.28;73.31
69359;HTU21D;56520;49.066;8.660;2023-04-19T08:01:45;12.29;72.35
69359;HTU21D;56520;49.066;8.660;2023-04-19T08:04:10;12.33;72.88
69359;HTU21D;56520;49.066;8.660;2023-04-19T08:06:36;12.26;71.49
69359;HTU21D;56520;49.066;8.660;2023-04-19T08:09:05;12.23;72.43
69359;HTU21D;56520;49.066;8.660;2023-04-19T08:11:31;12.45;72.00
69359;HTU21D;56520;49.066;8.660;2023-04-19T08:13:56;12.55;70.41
69359;HTU21D;56520;49.066;8.660;2023-04-19T08:16:22;12.55;71.52
69359;HTU21D;56520;49.066;8.660;2023-04-19T08:18:47;12.77;70.74
69359;HTU21D;56520;49.066;8.660;2023-04-19T08:21:15;12.99;69.93
69359;HTU21D;56520;49.066;8.660;2023-04-19T08:23:41;13.12;69.58
69359;HTU21D;56520;49.066;8.660;2023-04-19T08:26:06;13.24;69.21
69359;HTU21D;56520;49.066;8.660;2023-04-19T08:28:32;13.39;69.65
69359;HTU21D;56520;49.066;8.660;2023-04-19T08:30:58;13.45;68.40
69359;HTU21D;56520;49.066;8.660;2023-04-19T08:33:23;13.47;67.98
69359;HTU21D;56520;49.066;8.660;2023-04-19T08:35:48;13.52;67.32
69359;HTU21D;56520;49.066;8.660;2023-04-19T08:38:14;13.52;67.06
69359;HTU21D;56520;49.066;8.660;2023-04-19T08:40:51;13.51;67.55
69359;HTU21D;56520;49.066;8.660;2023-04-19T08:43:18;13.49;67.53
69359;HTU21D;56520;49.066;8.660;2023-04-19T08:45:48;13.37;67.55
69359;HTU21D;56520;49.066;8.660;2023-04-19T08:48:15;13.25;67.89
69359;HTU21D;56520;49.066;8.660;2023-04-19T08:50:41;13.01;67.99
69359;HTU21D;56520;49.066;8.660;2023-04-19T08:53:08;12.84;69.38
69359;HTU21D;56520;49.066;8.660;2023-04-19T08:55:37;12.78;69.81
69359;HTU21D;56520;49.066;8.660;2023-04-19T08:58:03;12.78;69.58
69359;HTU21D;56520;49.066;8.660;2023-04-19T09:00:28;12.86;69.78
69359;HTU21D;56520;49.066;8.660;2023-04-19T09:02:54;13.17;68.85
69359;HTU21D;56520;49.066;8.660;2023-04-19T09:05:20;13.58;66.62
69359;HTU21D;56520;49.066;8.660;2023-04-19T09:07:45;13.91;66.88
69359;HTU21D;56520;49.066;8.660;2023-04-19T09:10:18;14.33;64.27
69359;HTU21D;56520;49.066;8.660;2023-04-19T09:13:00;14.77;64.57
69359;HTU21D;56520;49.066;8.660;2023-04-19T09:15:39;15.11;63.26
69359;HTU21D;56520;49.066;8.660;2023-04-19T09:18:07;15.17;61.33
69359;HTU21D;56520;49.066;8.660;2023-04-19T09:20:37;14.95;62.11
69359;HTU21D;56520;49.066;8.660;2023-04-19T09:23:04;14.60;63.24
69359;HTU21D;56520;49.066;8.660;2023-04-19T09:25:30;14.27;62.97
69359;HTU21D;56520;49.066;8.660;2023-04-19T09:28:10;13.90;64.83
69359;HTU21D;56520;49.066;8.660;2023-04-19T09:30:39;13.69;65.30
69359;HTU21D;56520;49.066;8.660;2023-04-19T09:33:05;13.50;65.50
69359;HTU21D;56520;49.066;8.660;2023-04-19T09:35:45;13.53;66.60
69359;HTU21D;56520;49.066;8.660;2023-04-19T09:38:14;13.96;66.26
69359;HTU21D;56520;49.066;8.660;2023-04-19T09:40:40;14.55;64.85
69359;HTU21D;56520;49.066;8.660;2023-04-19T09:43:06;15.31;63.63
69359;HTU21D;56520;49.066;8.660;2023-04-19T09:45:45;15.72;61.09
69359;HTU21D;56520;49.066;8.660;2023-04-19T09:48:12;16.40;58.12
69359;HTU21D;56520;49.066;8.660;2023-04-19T09:50:54;16.22;59.06
69359;HTU21D;56520;49.066;8.660;2023-04-19T09:53:21;15.74;58.87
69359;HTU21D;56520;49.066;8.660;2023-04-19T09:55:47;15.17;60.15
69359;HTU21D;56520;49.066;8.660;2023-04-19T09:58:13;14.89;60.73
69359;HTU21D;56520;49.066;8.660;2023-04-19T10:00:40;14.83;61.92
69359;HTU21D;56520;49.066;8.660;2023-04-19T10:03:08;14.73;62.43
69359;HTU21D;56520;49.066;8.660;2023-04-19T10:05:37;14.79;62.18
69359;HTU21D;56520;49.066;8.660;2023-04-19T10:08:06;14.93;59.93
69359;HTU21D;56520;49.066;8.660;2023-04-19T10:10:32;14.97;60.80
69359;HTU21D;56520;49.066;8.660;2023-04-19T10:12:58;14.95;61.01
69359;HTU21D;56520;49.066;8.660;2023-04-19T10:15:25;14.93;62.68
69359;HTU21D;56520;49.066;8.660;2023-04-19T10:17:51;14.97;62.31
69359;HTU21D;56520;49.066;8.660;2023-04-19T10:20:28;14.86;63.11
69359;HTU21D;56520;49.066;8.660;2023-04-19T10:22:55;14.82;63.39
69359;HTU21D;56520;49.066;8.660;2023-04-19T10:25:27;14.84;63.50
69359;HTU21D;56520;49.066;8.660;2023-04-19T10:27:52;14.80;62.90
69359;HTU21D;56520;49.066;8.660;2023-04-19T10:30:22;14.65;63.05
69359;HTU21D;56520;49.066;8.660;2023-04-19T10:35:20;14.28;64.16
69359;HTU21D;56520;49.066;8.660;2023-04-19T10:38:11;14.15;65.05
69359;HTU21D;56520;49.066;8.660;2023-04-19T10:43:16;14.57;63.94
69359;HTU21D;56520;49.066;8.660;2023-04-19T10:45:42;14.74;63.04
69359;HTU21D;56520;49.066;8.660;2023-04-19T10:51:10;15.06;62.97
69359;HTU21D;56520;49.066;8.660;2023-04-19T11:01:46;14.36;64.66
69359;HTU21D;56520;49.066;8.660;2023-04-19T11:04:23;14.10;64.14
69359;HTU21D;56520;49.066;8.660;2023-04-19T11:09:38;13.76;65.97
69359;HTU21D;56520;49.066;8.660;2023-04-19T11:12:13;13.58;66.61
69359;HTU21D;56520;49.066;8.660;2023-04-19T11:14:45;13.44;67.39
69359;HTU21D;56520;49.066;8.660;2023-04-19T11:17:22;13.34;67.52
69359;HTU21D;56520;49.066;8.660;2023-04-19T11:25:14;13.06;69.05
69359;HTU21D;56520;49.066;8.660;2023-04-19T11:27:41;12.99;69.15
69359;HTU21D;56520;49.066;8.660;2023-04-19T11:32:34;12.85;69.84
69359;HTU21D;56520;49.066;8.660;2023-04-19T11:35:07;12.82;71.02
69359;HTU21D;56520;49.066;8.660;2023-04-19T11:37:37;12.80;70.73
69359;HTU21D;56520;49.066;8.660;2023-04-19T11:40:03;12.77;71.10
69359;HTU21D;56520;49.066;8.660;2023-04-19T11:42:29;12.77;70.69
69359;HTU21D;56520;49.066;8.660;2023-04-19T11:44:55;12.79;70.53
69359;HTU21D;56520;49.066;8.660;2023-04-19T11:47:22;12.84;70.55
69359;HTU21D;56520;49.066;8.660;2023-04-19T11:49:48;12.89;70.58
69359;HTU21D;56520;49.066;8.660;2023-04-19T11:52:23;12.89;70.87
69359;HTU21D;56520;49.066;8.660;2023-04-19T11:54:53;12.84;70.29
69359;HTU21D;56520;49.066;8.660;2023-04-19T11:57:30;12.76;70.68
69359;HTU21D;56520;49.066;8.660;2023-04-19T12:00:07;12.71;70.73
69359;HTU21D;56520;49.066;8.660;2023-04-19T12:02:37;12.71;70.89
69359;HTU21D;56520;49.066;8.660;2023-04-19T12:05:10;12.67;70.82
69359;HTU21D;56520;49.066;8.660;2023-04-19T12:07:36;12.62;70.79
69359;HTU21D;56520;49.066;8.660;2023-04-19T12:10:11;12.62;70.93
69359;HTU21D;56520;49.066;8.660;2023-04-19T12:12:37;12.61;71.15
69359;HTU21D;56520;49.066;8.660;2023-04-19T12:15:04;12.57;71.57
69359;HTU21D;56520;49.066;8.660;2023-04-19T12:17:30;12.51;71.72
69359;HTU21D;56520;49.066;8.660;2023-04-19T12:19:56;12.43;71.69
69359;HTU21D;56520;49.066;8.660;2023-04-19T12:22:21;12.37;72.83
69359;HTU21D;56520;49.066;8.660;2023-04-19T12:24:50;12.15;73.44
69359;HTU21D;56520;49.066;8.660;2023-04-19T12:27:17;11.93;74.98
69359;HTU21D;56520;49.066;8.660;2023-04-19T12:29:42;11.75;76.41
69359;HTU21D;56520;49.066;8.660;2023-04-19T12:32:09;11.69;76.83
69359;HTU21D;56520;49.066;8.660;2023-04-19T12:34:35;11.64;75.85
69359;HTU21D;56520;49.066;8.660;2023-04-19T12:37:00;11.70;75.70
69359;HTU21D;56520;49.066;8.660;2023-04-19T12:39:27;11.78;75.81
69359;HTU21D;56520;49.066;8.660;2023-04-19T12:41:53;11.82;75.55
69359;HTU21D;56520;49.066;8.660;2023-04-19T12:44:18;11.88;75.93
69359;HTU21D;56520;49.066;8.660;2023-04-19T12:46:44;11.96;75.51
69359;HTU21D;56520;49.066;8.660;2023-04-19T12:49:09;12.02;74.87
69359;HTU21D;56520;49.066;8.660;2023-04-19T12:51:35;12.00;73.91
69359;HTU21D;56520;49.066;8.660;2023-04-19T12:54:00;11.98;73.19
69359;HTU21D;56520;49.066;8.660;2023-04-19T12:56:26;11.96;72.05
69359;HTU21D;56520;49.066;8.660;2023-04-19T12:58:52;11.90;71.58
69359;HTU21D;56520;49.066;8.660;2023-04-19T13:01:17;11.89;71.86
69359;HTU21D;56520;49.066;8.660;2023-04-19T13:03:43;11.86;71.05
69359;HTU21D;56520;49.066;8.660;2023-04-19T13:06:09;11.78;71.48
69359;HTU21D;56520;49.066;8.660;2023-04-19T13:08:37;11.70;71.27
69359;HTU21D;56520;49.066;8.660;2023-04-19T13:11:03;11.67;71.34
69359;HTU21D;56520;49.066;8.660;2023-04-19T13:13:28;11.72;71.68
69359;HTU21D;56520;49.066;8.660;2023-04-19T13:15:53;11.79;71.87
69359;HTU21D;56520;49.066;8.660;2023-04-19T13:18:19;11.82;71.70
69359;HTU21D;56520;49.066;8.660;2023-04-19T13:20:45;11.83;72.41
69359;HTU21D;56520;49.066;8.660;2023-04-19T13:23:11;11.82;73.20
69359;HTU21D;56520;49.066;8.660;2023-04-19T13:25:36;11.77;74.63
69359;HTU21D;56520;49.066;8.660;2023-04-19T13:28:04;11.64;75.11
69359;HTU21D;56520;49.066;8.660;2023-04-19T13:30:29;11.59;75.76
69359;HTU21D;56520;49.066;8.660;2023-04-19T13:32:55;11.59;75.56
69359;HTU21D;56520;49.066;8.660;2023-04-19T13:35:20;11.71;75.60
69359;HTU21D;56520;49.066;8.660;2023-04-19T13:37:46;11.93;74.92
69359;HTU21D;56520;49.066;8.660;2023-04-19T13:40:12;12.19;73.59
69359;HTU21D;56520;49.066;8.660;2023-04-19T13:42:37;12.50;73.60
69359;HTU21D;56520;49.066;8.660;2023-04-19T13:45:03;12.99;72.70
69359;HTU21D;56520;49.066;8.660;2023-04-19T13:47:29;13.50;70.87
69359;HTU21D;56520;49.066;8.660;2023-04-19T13:49:54;13.78;70.31
69359;HTU21D;56520;49.066;8.660;2023-04-19T13:52:19;13.96;70.22
69359;HTU21D;56520;49.066;8.660;2023-04-19T13:54:49;14.20;69.55
69359;HTU21D;56520;49.066;8.660;2023-04-19T13:57:14;14.38;68.08
69359;HTU21D;56520;49.066;8.660;2023-04-19T13:59:39;14.63;67.24
69359;HTU21D;56520;49.066;8.660;2023-04-19T14:02:05;15.15;66.99
69359;HTU21D;56520;49.066;8.660;2023-04-19T14:04:31;15.52;65.24
69359;HTU21D;56520;49.066;8.660;2023-04-19T14:06:57;15.66;60.57
69359;HTU21D;56520;49.066;8.660;2023-04-19T14:09:22;15.51;62.05
69359;HTU21D;56520;49.066;8.660;2023-04-19T14:11:48;15.78;61.89
69359;HTU21D;56520;49.066;8.660;2023-04-19T14:14:14;16.16;62.12
69359;HTU21D;56520;49.066;8.660;2023-04-19T14:16:39;16.42;59.70
69359;HTU21D;56520;49.066;8.660;2023-04-19T14:19:05;16.15;60.36
69359;HTU21D;56520;49.066;8.660;2023-04-19T14:21:31;15.78;58.11
69359;HTU21D;56520;49.066;8.660;2023-04-19T14:23:56;15.25;59.93
69359;HTU21D;56520;49.066;8.660;2023-04-19T14:26:24;14.71;60.70
69359;HTU21D;56520;49.066;8.660;2023-04-19T14:28:50;14.39;62.45
69359;HTU21D;56520;49.066;8.660;2023-04-19T14:31:15;14.32;63.31
69359;HTU21D;56520;49.066;8.660;2023-04-19T14:33:41;14.66;64.02
69359;HTU21D;56520;49.066;8.660;2023-04-19T14:36:06;15.13;63.37
69359;HTU21D;56520;49.066;8.660;2023-04-19T14:38:32;15.27;63.08
69359;HTU21D;56520;49.066;8.660;2023-04-19T14:40:58;15.23;62.86
69359;HTU21D;56520;49.066;8.660;2023-04-19T14:43:23;15.15;62.79
69359;HTU21D;56520;49.066;8.660;2023-04-19T14:45:49;15.04;62.67
69359;HTU21D;56520;49.066;8.660;2023-04-19T14:48:14;15.03;62.79
69359;HTU21D;56520;49.066;8.660;2023-04-19T14:50:40;15.07;62.12
69359;HTU21D;56520;49.066;8.660;2023-04-19T14:53:05;14.96;61.79
69359;HTU21D;56520;49.066;8.660;2023-04-19T14:55:31;14.84;60.83
69359;HTU21D;56520;49.066;8.660;2023-04-19T14:57:56;14.72;60.82
69359;HTU21D;56520;49.066;8.660;2023-04-19T15:00:22;14.74;62.28
69359;HTU21D;56520;49.066;8.660;2023-04-19T15:02:47;14.85;61.68
69359;HTU21D;56520;49.066;8.660;2023-04-19T15:05:12;14.99;61.54
69359;HTU21D;56520;49.066;8.660;2023-04-19T15:07:38;15.34;61.05
69359;HTU21D;56520;49.066;8.660;2023-04-19T15:10:04;15.66;57.79
69359;HTU21D;56520;49.066;8.660;2023-04-19T15:12:30;15.87;58.56
69359;HTU21D;56520;49.066;8.660;2023-04-19T15:14:55;15.97;58.94
69359;HTU21D;56520;49.066;8.660;2023-04-19T15:17:20;15.85;59.13
69359;HTU21D;56520;49.066;8.660;2023-04-19T15:19:46;15.66;59.56
69359;HTU21D;56520;49.066;8.660;2023-04-19T15:22:11;15.25;58.81
69359;HTU21D;56520;49.066;8.660;2023-04-19T15:24:37;14.80;60.96
69359;HTU21D;56520;49.066;8.660;2023-04-19T15:27:02;14.52;61.49
69359;HTU21D;56520;49.066;8.660;2023-04-19T15:29:28;14.20;61.65
69359;HTU21D;56520;49.066;8.660;2023-04-19T15:31:53;13.90;62.64
69359;HTU21D;56520;49.066;8.660;2023-04-19T15:34:19;13.70;64.11
69359;HTU21D;56520;49.066;8.660;2023-04-19T15:36:44;13.50;65.13
69359;HTU21D;56520;49.066;8.660;2023-04-19T15:39:10;13.33;66.04
69359;HTU21D;56520;49.066;8.660;2023-04-19T15:41:35;13.12;67.41
69359;HTU21D;56520;49.066;8.660;2023-04-19T15:44:01;12.94;68.63